Time;durP1;ratioP1;P1;durP2;ratioP2;P2;SDS_P1;SDS_P2;PMS_P1;PMS_P2;Temp;Humidity;BMP_temperature;BMP_pressure;BME280_temperature;BME280_humidity;BME280_pressure;Samples;Min_cycle;Max_cycle;Signal;HPM_P1;HPM_P2
2023/10/20 00:00:20;;;;;;;13.18;3.97;;;;;;;;;;4896505;29;20031;-68
2023/10/20 00:02:46;;;;;;;8.93;4.20;;;;;;;;;;4896269;29;20041;-69
2023/10/20 00:05:13;;;;;;;6.35;3.80;;;;;;;;;;4896457;29;20039;-66
2023/10/20 00:07:39;;;;;;;11.75;3.95;;;;;;;;;;4896525;29;20091;-69
2023/10/20 00:10:06;;;;;;;6.35;3.28;;;;;;;;;;4896417;29;20493;-65
2023/10/20 00:12:32;;;;;;;6.05;3.20;;;;;;;;;;4896099;29;20517;-66
2023/10/20 00:14:57;;;;;;;9.63;3.80;;;;;;;;;;4900080;29;20032;-67
2023/10/20 00:17:23;;;;;;;11.90;4.03;;;;;;;;;;4915054;29;20370;-69
2023/10/20 00:19:48;;;;;;;11.20;4.55;;;;;;;;;;4914932;29;20036;-66
2023/10/20 00:22:15;;;;;;;12.10;3.33;;;;;;;;;;4914998;29;20028;-66
2023/10/20 00:24:41;;;;;;;11.82;3.40;;;;;;;;;;4914882;29;20054;-66
2023/10/20 00:27:08;;;;;;;11.02;3.80;;;;;;;;;;4914659;29;20039;-66
2023/10/20 00:29:34;;;;;;;10.60;3.55;;;;;;;;;;4914733;29;20036;-67
2023/10/20 00:32:00;;;;;;;5.68;3.28;;;;;;;;;;4906601;29;20475;-66
2023/10/20 00:34:26;;;;;;;8.80;3.67;;;;;;;;;;4906590;29;20038;-66
2023/10/20 00:36:51;;;;;;;8.30;3.97;;;;;;;;;;4913518;29;20472;-66
2023/10/20 00:39:17;;;;;;;2.90;2.70;;;;;;;;;;4913689;29;20024;-66
2023/10/20 00:41:42;;;;;;;9.05;3.35;;;;;;;;;;4913539;29;20447;-67
2023/10/20 00:44:09;;;;;;;7.82;3.88;;;;;;;;;;4913618;29;20393;-67
2023/10/20 00:46:35;;;;;;;7.80;3.75;;;;;;;;;;4913064;29;20051;-67
2023/10/20 00:49:02;;;;;;;9.90;3.80;;;;;;;;;;4912861;29;20064;-66
2023/10/20 00:51:28;;;;;;;6.65;3.72;;;;;;;;;;4913117;29;20111;-66
2023/10/20 00:53:56;;;;;;;6.15;3.40;;;;;;;;;;4913366;29;20111;-66
2023/10/20 00:56:22;;;;;;;8.40;4.22;;;;;;;;;;4913388;29;20517;-66
2023/10/20 00:58:48;;;;;;;3.47;2.90;;;;;;;;;;4913197;29;20103;-67
2023/10/20 01:01:13;;;;;;;4.10;3.05;;;;;;;;;;4914025;29;20036;-66
2023/10/20 01:03:39;;;;;;;7.95;4.50;;;;;;;;;;4918468;29;20481;-66
2023/10/20 01:06:05;;;;;;;7.82;3.47;;;;;;;;;;4918531;29;20032;-67
2023/10/20 01:08:30;;;;;;;4.93;3.10;;;;;;;;;;4918638;29;20107;-66
2023/10/20 01:10:56;;;;;;;5.75;3.60;;;;;;;;;;4901399;29;20024;-66
2023/10/20 01:13:22;;;;;;;8.38;3.58;;;;;;;;;;4918172;29;20512;-66
2023/10/20 01:15:50;;;;;;;5.47;3.70;;;;;;;;;;4918589;29;20028;-67
2023/10/20 01:18:15;;;;;;;5.15;2.88;;;;;;;;;;4918228;29;20031;-67
2023/10/20 01:20:41;;;;;;;7.65;3.58;;;;;;;;;;4918201;29;20388;-66
2023/10/20 01:23:07;;;;;;;4.13;3.03;;;;;;;;;;4918075;29;20449;-66
2023/10/20 01:25:32;;;;;;;4.30;2.58;;;;;;;;;;4918081;29;20036;-66
2023/10/20 01:27:58;;;;;;;3.97;2.95;;;;;;;;;;4918142;29;20028;-65
2023/10/20 01:30:25;;;;;;;4.53;3.10;;;;;;;;;;4917944;29;20063;-66
2023/10/20 01:32:51;;;;;;;4.00;3.05;;;;;;;;;;4900988;29;20036;-66
2023/10/20 01:35:16;;;;;;;4.55;3.30;;;;;;;;;;4917823;29;20043;-66
2023/10/20 01:37:42;;;;;;;8.20;3.67;;;;;;;;;;4917883;29;20032;-67
2023/10/20 01:40:09;;;;;;;5.78;3.30;;;;;;;;;;4906635;29;20056;-70
2023/10/20 01:42:35;;;;;;;6.43;3.60;;;;;;;;;;4901509;29;20051;-68
2023/10/20 01:45:02;;;;;;;5.00;2.97;;;;;;;;;;4900621;29;20386;-68
2023/10/20 01:47:28;;;;;;;3.05;2.58;;;;;;;;;;4900795;29;20016;-69
2023/10/20 01:49:53;;;;;;;5.70;3.85;;;;;;;;;;4900958;29;20024;-68
2023/10/20 01:52:19;;;;;;;5.78;3.25;;;;;;;;;;4901109;29;20497;-75
2023/10/20 01:54:46;;;;;;;2.75;2.55;;;;;;;;;;4906149;29;20073;-74
2023/10/20 01:57:11;;;;;;;7.78;3.47;;;;;;;;;;4908618;29;20068;-74
2023/10/20 01:59:37;;;;;;;3.05;2.65;;;;;;;;;;4908358;29;20498;-75
2023/10/20 02:02:04;;;;;;;6.30;3.33;;;;;;;;;;4907904;29;20152;-75
2023/10/20 02:04:30;;;;;;;3.28;2.88;;;;;;;;;;4911841;29;20084;-76
2023/10/20 02:06:56;;;;;;;7.70;3.42;;;;;;;;;;4909750;29;20036;-75
2023/10/20 02:09:25;;;;;;;4.82;3.50;;;;;;;;;;4909409;29;20024;-75
2023/10/20 02:11:52;;;;;;;4.22;3.28;;;;;;;;;;4914581;29;20028;-74
2023/10/20 02:14:18;;;;;;;6.72;3.00;;;;;;;;;;4904820;29;20058;-73
2023/10/20 02:16:43;;;;;;;5.28;3.35;;;;;;;;;;4910893;29;20521;-74
2023/10/20 02:19:10;;;;;;;3.38;2.72;;;;;;;;;;4918423;29;20058;-73
2023/10/20 02:21:37;;;;;;;8.05;3.63;;;;;;;;;;4917938;29;20020;-73
2023/10/20 02:24:03;;;;;;;17.25;3.58;;;;;;;;;;4918098;29;20516;-73
2023/10/20 02:26:29;;;;;;;3.92;3.03;;;;;;;;;;4917960;29;20028;-73
2023/10/20 02:28:55;;;;;;;5.93;3.30;;;;;;;;;;4918187;29;20496;-73
2023/10/20 02:31:20;;;;;;;3.65;2.80;;;;;;;;;;4918417;29;20032;-73
2023/10/20 02:33:47;;;;;;;4.78;3.10;;;;;;;;;;4918232;29;20377;-73
2023/10/20 02:36:20;;;;;;;4.97;3.00;;;;;;;;;;4918347;29;20064;-73
2023/10/20 02:38:47;;;;;;;5.30;3.03;;;;;;;;;;4918531;29;20031;-73
2023/10/20 02:41:14;;;;;;;5.18;3.17;;;;;;;;;;4918418;29;20035;-73
2023/10/20 02:43:40;;;;;;;6.30;3.05;;;;;;;;;;4918437;29;20036;-73
2023/10/20 02:46:06;;;;;;;5.65;3.78;;;;;;;;;;4901475;29;20024;-73
2023/10/20 02:48:33;;;;;;;2.97;2.50;;;;;;;;;;4918354;29;20039;-73
2023/10/20 02:51:11;;;;;;;5.28;3.17;;;;;;;;;;4918340;29;20101;-73
2023/10/20 02:53:39;;;;;;;3.95;3.00;;;;;;;;;;4918176;29;20032;-73
2023/10/20 02:56:16;;;;;;;4.28;3.00;;;;;;;;;;4918166;29;20039;-73
2023/10/20 02:58:45;;;;;;;6.50;3.00;;;;;;;;;;4917979;29;20040;-74
2023/10/20 03:01:15;;;;;;;8.48;3.53;;;;;;;;;;4918070;29;20057;-73
2023/10/20 03:03:41;;;;;;;3.58;2.97;;;;;;;;;;4901450;29;20040;-74
2023/10/20 03:06:09;;;;;;;7.57;3.97;;;;;;;;;;4918084;29;20409;-74
2023/10/20 03:08:36;;;;;;;4.70;3.03;;;;;;;;;;4917990;29;20501;-74
2023/10/20 03:11:02;;;;;;;4.05;2.90;;;;;;;;;;4918106;29;20028;-74
2023/10/20 03:13:28;;;;;;;3.53;2.97;;;;;;;;;;4917787;29;20039;-74
2023/10/20 03:15:54;;;;;;;3.63;3.20;;;;;;;;;;4917893;29;20036;-73
2023/10/20 03:18:20;;;;;;;8.93;4.22;;;;;;;;;;4917666;29;20092;-73
2023/10/20 03:20:47;;;;;;;6.35;3.65;;;;;;;;;;4917729;29;20031;-73
2023/10/20 03:23:14;;;;;;;8.68;3.53;;;;;;;;;;4900755;29;20091;-73
2023/10/20 03:25:41;;;;;;;5.15;3.35;;;;;;;;;;4917420;29;20036;-74
2023/10/20 03:28:07;;;;;;;5.43;3.50;;;;;;;;;;4917862;29;20047;-74
2023/10/20 03:30:39;;;;;;;5.75;3.70;;;;;;;;;;4917757;29;20032;-74
2023/10/20 03:33:10;;;;;;;3.83;2.60;;;;;;;;;;4917506;29;20374;-74
2023/10/20 03:35:36;;;;;;;5.13;3.45;;;;;;;;;;4917520;29;20024;-74
2023/10/20 03:38:03;;;;;;;4.18;3.10;;;;;;;;;;4917552;29;20032;-74
2023/10/20 03:40:36;;;;;;;5.18;3.10;;;;;;;;;;4917853;29;20280;-74
2023/10/20 03:43:08;;;;;;;4.72;3.20;;;;;;;;;;4918589;29;20039;-74
2023/10/20 03:45:42;;;;;;;3.90;3.05;;;;;;;;;;4902079;29;20116;-74
2023/10/20 03:48:11;;;;;;;4.28;3.33;;;;;;;;;;4918659;29;20385;-74
2023/10/20 03:50:41;;;;;;;7.45;3.70;;;;;;;;;;4918286;29;20162;-74
2023/10/20 03:53:07;;;;;;;7.10;3.97;;;;;;;;;;4917597;29;20031;-74
2023/10/20 03:55:36;;;;;;;5.38;3.50;;;;;;;;;;4900495;29;20042;-74
2023/10/20 03:58:02;;;;;;;4.65;3.30;;;;;;;;;;4917014;29;20048;-74
2023/10/20 04:00:28;;;;;;;5.75;3.53;;;;;;;;;;4917004;29;20433;-74
2023/10/20 04:02:55;;;;;;;5.40;3.58;;;;;;;;;;4917252;29;20087;-74
2023/10/20 04:05:21;;;;;;;5.80;3.50;;;;;;;;;;4916912;29;20038;-74
2023/10/20 04:07:47;;;;;;;6.60;3.80;;;;;;;;;;4916853;29;20024;-75
2023/10/20 04:10:14;;;;;;;4.22;3.17;;;;;;;;;;4916754;29;20035;-74
2023/10/20 04:12:41;;;;;;;3.28;2.67;;;;;;;;;;4916827;29;20030;-74
2023/10/20 04:15:19;;;;;;;5.68;3.58;;;;;;;;;;4916724;29;20027;-74
2023/10/20 04:17:51;;;;;;;3.88;3.05;;;;;;;;;;4916828;29;20036;-74
2023/10/20 04:20:18;;;;;;;6.00;2.92;;;;;;;;;;4916724;29;20020;-74
2023/10/20 04:22:49;;;;;;;4.57;2.63;;;;;;;;;;4916660;29;20024;-74
2023/10/20 04:25:19;;;;;;;8.13;3.97;;;;;;;;;;4916711;29;20083;-75
2023/10/20 04:27:51;;;;;;;;;;;;;;;;;;4917278;29;20083;-74
2023/10/20 05:07:52;;;;;;;2.60;2.40;;;;;;;;;;4917113;29;20035;-74
2023/10/20 05:10:20;;;;;;;3.13;2.47;;;;;;;;;;4916426;29;20024;-73
2023/10/20 05:12:49;;;;;;;3.40;2.63;;;;;;;;;;4917523;29;20038;-75
2023/10/20 05:15:15;;;;;;;2.70;2.50;;;;;;;;;;4916988;29;20036;-75
2023/10/20 05:17:41;;;;;;;4.60;3.50;;;;;;;;;;4917504;29;20362;-75
2023/10/20 05:20:13;;;;;;;2.85;2.53;;;;;;;;;;4916858;29;20091;-74
2023/10/20 05:22:40;;;;;;;4.00;3.50;;;;;;;;;;4899624;29;20035;-75
2023/10/20 05:25:06;;;;;;;6.10;3.25;;;;;;;;;;4916619;29;20088;-75
2023/10/20 05:27:32;;;;;;;3.75;3.35;;;;;;;;;;4916640;29;20413;-74
2023/10/20 05:29:57;;;;;;;6.50;3.63;;;;;;;;;;4916641;29;20024;-74
2023/10/20 05:32:23;;;;;;;6.18;2.72;;;;;;;;;;4917317;29;20055;-74
2023/10/20 05:34:53;;;;;;;7.03;3.47;;;;;;;;;;4916599;29;20091;-74
2023/10/20 05:37:20;;;;;;;;;;;;;;;;;;4917014;29;20351;-75
2023/10/20 05:39:45;;;;;;;6.03;3.45;;;;;;;;;;4917588;29;19915;-75
2023/10/20 05:42:11;;;;;;;2.97;2.67;;;;;;;;;;4916835;29;20024;-74
2023/10/20 05:44:44;;;;;;;5.32;3.75;;;;;;;;;;4899398;29;20028;-75
2023/10/20 05:47:09;;;;;;;3.78;3.10;;;;;;;;;;4916464;29;20020;-75
2023/10/20 05:49:35;;;;;;;6.45;3.10;;;;;;;;;;4919534;29;20047;-74
2023/10/20 05:52:00;;;;;;;4.90;3.42;;;;;;;;;;4920581;29;20111;-74
2023/10/20 05:54:26;;;;;;;3.38;3.08;;;;;;;;;;4930859;29;20028;-74
2023/10/20 05:56:51;;;;;;;3.88;2.92;;;;;;;;;;4935728;29;20032;-74
2023/10/20 05:59:17;;;;;;;8.13;3.67;;;;;;;;;;4924922;29;20055;-69
2023/10/20 06:01:43;;;;;;;5.55;3.20;;;;;;;;;;4919170;29;20385;-68
2023/10/20 06:04:08;;;;;;;5.63;3.38;;;;;;;;;;4919105;29;20497;-68
2023/10/20 06:06:34;;;;;;;5.55;3.50;;;;;;;;;;4919308;29;20482;-69
2023/10/20 06:08:59;;;;;;;5.18;3.50;;;;;;;;;;4918969;29;20083;-69
2023/10/20 06:11:25;;;;;;;4.28;3.40;;;;;;;;;;4919013;29;20032;-68
2023/10/20 06:13:50;;;;;;;4.05;2.90;;;;;;;;;;4918949;29;20042;-69
2023/10/20 06:16:16;;;;;;;4.35;3.63;;;;;;;;;;4901824;29;20389;-69
2023/10/20 06:18:42;;;;;;;4.95;3.38;;;;;;;;;;4901999;29;20100;-68
2023/10/20 06:21:16;;;;;;;5.93;3.90;;;;;;;;;;4918838;29;20036;-68
2023/10/20 06:23:42;;;;;;;6.80;3.17;;;;;;;;;;4918800;29;20091;-70
2023/10/20 06:26:08;;;;;;;3.10;2.45;;;;;;;;;;4918764;29;20414;-68
2023/10/20 06:28:34;;;;;;;6.05;3.38;;;;;;;;;;4918709;29;20115;-69
2023/10/20 06:31:26;;;;;;;4.85;3.50;;;;;;;;;;4918954;29;20028;-74
2023/10/20 06:33:52;;;;;;;4.15;2.92;;;;;;;;;;4918304;29;20035;-68
2023/10/20 06:36:24;;;;;;;4.13;3.00;;;;;;;;;;4918570;29;20370;-68
2023/10/20 06:38:49;;;;;;;4.07;2.70;;;;;;;;;;4918482;29;20035;-68
2023/10/20 06:41:16;;;;;;;5.30;3.25;;;;;;;;;;4916753;29;20028;-68
2023/10/20 06:43:43;;;;;;;4.10;3.13;;;;;;;;;;4903497;29;20100;-68
2023/10/20 06:46:09;;;;;;;4.68;3.30;;;;;;;;;;4886473;29;20039;-69
2023/10/20 06:48:36;;;;;;;4.88;3.38;;;;;;;;;;4904616;29;20493;-70
2023/10/20 06:51:01;;;;;;;5.15;3.00;;;;;;;;;;4905982;29;20028;-69
2023/10/20 06:53:28;;;;;;;3.60;3.05;;;;;;;;;;4907146;29;20020;-68
2023/10/20 06:55:54;;;;;;;3.20;2.90;;;;;;;;;;4907374;29;20028;-72
2023/10/20 06:58:19;;;;;;;4.57;3.05;;;;;;;;;;4907671;29;20502;-70
2023/10/20 07:00:45;;;;;;;7.22;3.08;;;;;;;;;;4906124;29;21543;-70
2023/10/20 07:03:12;;;;;;;4.15;2.90;;;;;;;;;;4906353;29;20486;-71
2023/10/20 07:05:41;;;;;;;3.75;3.17;;;;;;;;;;4907549;29;20040;-70
2023/10/20 07:08:08;;;;;;;5.37;3.60;;;;;;;;;;4907140;29;20073;-72
2023/10/20 07:10:37;;;;;;;4.35;3.78;;;;;;;;;;4907355;29;20032;-70
2023/10/20 07:13:12;;;;;;;6.22;3.33;;;;;;;;;;4906899;29;20040;-70
2023/10/20 07:15:40;;;;;;;4.78;3.03;;;;;;;;;;4906629;29;20160;-68
2023/10/20 07:18:06;;;;;;;5.57;3.40;;;;;;;;;;4907099;29;20024;-69
2023/10/20 07:20:33;;;;;;;3.65;3.00;;;;;;;;;;4903907;29;20029;-70
2023/10/20 07:22:58;;;;;;;5.22;3.28;;;;;;;;;;4903551;29;20040;-71
2023/10/20 07:25:25;;;;;;;3.33;3.03;;;;;;;;;;4902355;29;20036;-70
2023/10/20 07:27:51;;;;;;;3.30;2.90;;;;;;;;;;4902880;29;20106;-69
2023/10/20 07:30:17;;;;;;;5.57;3.42;;;;;;;;;;4905972;29;20152;-70
2023/10/20 07:32:43;;;;;;;3.40;3.10;;;;;;;;;;4916132;29;20060;-70
2023/10/20 07:35:11;;;;;;;5.00;3.20;;;;;;;;;;4917205;29;20422;-70
2023/10/20 07:37:37;;;;;;;3.78;2.97;;;;;;;;;;4907615;29;20168;-70
2023/10/20 07:40:04;;;;;;;4.30;2.97;;;;;;;;;;4905853;29;20044;-71
2023/10/20 07:42:31;;;;;;;4.95;3.35;;;;;;;;;;4907275;29;20057;-72
2023/10/20 07:44:58;;;;;;;3.90;3.15;;;;;;;;;;4906735;29;20389;-70
2023/10/20 07:47:23;;;;;;;4.10;3.33;;;;;;;;;;4906791;29;20071;-70
2023/10/20 07:49:49;;;;;;;6.03;3.08;;;;;;;;;;4906596;29;20122;-69
2023/10/20 07:52:14;;;;;;;4.63;3.55;;;;;;;;;;4906812;29;20028;-73
2023/10/20 07:54:40;;;;;;;3.28;2.97;;;;;;;;;;4888981;29;20164;-70
2023/10/20 07:57:07;;;;;;;4.25;3.20;;;;;;;;;;4912664;29;20405;-69
2023/10/20 07:59:32;;;;;;;5.40;3.33;;;;;;;;;;4902952;29;20048;-72
2023/10/20 08:01:58;;;;;;;7.70;3.55;;;;;;;;;;4903048;29;20016;-72
2023/10/20 08:04:23;;;;;;;10.40;3.78;;;;;;;;;;4911488;29;20129;-72
2023/10/20 08:06:49;;;;;;;5.78;3.17;;;;;;;;;;4917002;29;20462;-73
2023/10/20 08:09:14;;;;;;;8.07;3.70;;;;;;;;;;4907009;29;20043;-75
2023/10/20 08:11:42;;;;;;;8.88;4.38;;;;;;;;;;4893741;29;20035;-68
2023/10/20 08:14:07;;;;;;;11.57;5.30;;;;;;;;;;4896820;29;20032;-69
2023/10/20 08:16:33;;;;;;;14.23;4.75;;;;;;;;;;4900342;29;20032;-67
2023/10/20 08:18:58;;;;;;;12.43;4.53;;;;;;;;;;4906518;29;20024;-66
2023/10/20 08:21:29;;;;;;;11.75;4.40;;;;;;;;;;4900980;29;20119;-67
2023/10/20 08:23:57;;;;;;;10.45;4.15;;;;;;;;;;4898051;29;20068;-67
2023/10/20 08:26:23;;;;;;;6.75;3.75;;;;;;;;;;4897639;29;20501;-67
2023/10/20 08:28:50;;;;;;;15.95;4.65;;;;;;;;;;4907879;29;20040;-67
2023/10/20 08:31:17;;;;;;;12.50;4.80;;;;;;;;;;4899934;29;20137;-66
2023/10/20 08:33:44;;;;;;;9.75;3.95;;;;;;;;;;4896498;29;20060;-67
2023/10/20 08:36:14;;;;;;;10.90;4.65;;;;;;;;;;4896041;29;20024;-67
2023/10/20 08:38:42;;;;;;;18.20;4.72;;;;;;;;;;4898304;29;20032;-67
2023/10/20 08:41:13;;;;;;;23.40;4.30;;;;;;;;;;4896760;29;20025;-66
2023/10/20 08:43:42;;;;;;;15.40;3.95;;;;;;;;;;4904591;29;20063;-68
2023/10/20 08:46:09;;;;;;;18.87;4.10;;;;;;;;;;4904454;29;20107;-67
2023/10/20 08:48:41;;;;;;;15.18;4.43;;;;;;;;;;4908971;29;20063;-67
2023/10/20 08:51:07;;;;;;;11.85;3.97;;;;;;;;;;4903656;29;20068;-67
2023/10/20 08:53:34;;;;;;;15.35;4.25;;;;;;;;;;4905248;29;20037;-68
2023/10/20 08:56:04;;;;;;;11.18;4.40;;;;;;;;;;4906098;29;20024;-68
2023/10/20 08:58:30;;;;;;;8.52;3.35;;;;;;;;;;4905062;29;20044;-69
2023/10/20 09:00:57;;;;;;;9.38;3.90;;;;;;;;;;4911824;29;20032;-67
2023/10/20 09:03:25;;;;;;;15.43;3.88;;;;;;;;;;4911680;29;20033;-68
2023/10/20 09:05:52;;;;;;;5.95;3.42;;;;;;;;;;4903429;29;20478;-67
2023/10/20 09:08:18;;;;;;;12.45;4.07;;;;;;;;;;4897594;29;20417;-70
2023/10/20 09:10:47;;;;;;;11.00;4.03;;;;;;;;;;4897195;29;20036;-67
2023/10/20 09:13:13;;;;;;;8.07;3.45;;;;;;;;;;4903359;29;20377;-69
2023/10/20 09:15:40;;;;;;;12.80;4.18;;;;;;;;;;4903986;29;20041;-66
2023/10/20 09:18:08;;;;;;;9.88;4.68;;;;;;;;;;4902865;29;20033;-68
2023/10/20 09:20:34;;;;;;;12.13;3.63;;;;;;;;;;4905106;29;20033;-68
2023/10/20 09:23:00;;;;;;;9.95;3.67;;;;;;;;;;4906275;29;20405;-69
2023/10/20 09:25:26;;;;;;;15.80;3.58;;;;;;;;;;4907940;29;20040;-67
2023/10/20 09:27:52;;;;;;;11.98;3.50;;;;;;;;;;4907525;29;20074;-68
2023/10/20 09:30:18;;;;;;;9.95;4.07;;;;;;;;;;4900482;29;20505;-67
2023/10/20 09:32:44;;;;;;;13.57;4.22;;;;;;;;;;4908587;29;20036;-68
2023/10/20 09:35:10;;;;;;;15.30;3.78;;;;;;;;;;4867310;29;20028;-67
2023/10/20 09:37:36;;;;;;;8.40;3.65;;;;;;;;;;4909190;29;20028;-68
2023/10/20 09:40:11;;;;;;;10.00;4.10;;;;;;;;;;4910565;29;20036;-68
2023/10/20 09:42:49;;;;;;;10.32;4.22;;;;;;;;;;4901911;29;20115;-68
2023/10/20 09:45:17;;;;;;;15.50;3.80;;;;;;;;;;4901208;29;20044;-68
2023/10/20 09:47:45;;;;;;;12.52;4.13;;;;;;;;;;4900210;29;20053;-68
2023/10/20 09:50:11;;;;;;;12.20;4.05;;;;;;;;;;4898938;29;20029;-68
2023/10/20 09:52:41;;;;;;;9.85;3.38;;;;;;;;;;4905181;29;20553;-68
2023/10/20 09:55:09;;;;;;;9.15;3.80;;;;;;;;;;4917700;29;20036;-69
2023/10/20 09:57:35;;;;;;;17.88;4.00;;;;;;;;;;4917631;29;20040;-68
2023/10/20 10:00:09;;;;;;;10.65;4.03;;;;;;;;;;4917179;29;20058;-68
2023/10/20 10:02:34;;;;;;;13.45;4.18;;;;;;;;;;4910103;29;20115;-69
2023/10/20 10:05:00;;;;;;;12.18;4.20;;;;;;;;;;4898503;29;20029;-69
2023/10/20 10:07:32;;;;;;;10.98;3.38;;;;;;;;;;4903174;29;20027;-69
2023/10/20 10:09:58;;;;;;;9.45;3.55;;;;;;;;;;4904359;29;20035;-68
2023/10/20 10:12:27;;;;;;;7.55;3.70;;;;;;;;;;4898378;29;20029;-68
2023/10/20 10:15:07;;;;;;;6.18;3.22;;;;;;;;;;4902856;29;20482;-68
2023/10/20 10:17:47;;;;;;;13.00;3.60;;;;;;;;;;4903849;29;20032;-68
2023/10/20 10:20:26;;;;;;;6.15;3.10;;;;;;;;;;4909207;29;20055;-68
2023/10/20 10:23:27;;;;;;;4.25;3.05;;;;;;;;;;4908675;29;20046;-68
2023/10/20 10:25:53;;;;;;;8.75;3.40;;;;;;;;;;4891846;29;20047;-68
2023/10/20 10:28:20;;;;;;;10.40;4.05;;;;;;;;;;4905125;29;20051;-67
2023/10/20 10:30:52;;;;;;;18.48;4.10;;;;;;;;;;4905810;29;20039;-67
2023/10/20 10:33:22;;;;;;;8.90;3.30;;;;;;;;;;4901273;29;20040;-70
2023/10/20 10:35:48;;;;;;;9.35;3.92;;;;;;;;;;4899508;29;20028;-68
2023/10/20 10:38:22;;;;;;;5.50;3.08;;;;;;;;;;4909942;29;20025;-68
2023/10/20 10:40:51;;;;;;;10.75;3.95;;;;;;;;;;4899243;29;20032;-68
2023/10/20 10:43:19;;;;;;;5.07;2.85;;;;;;;;;;4903598;29;20055;-68
2023/10/20 10:45:45;;;;;;;7.95;3.60;;;;;;;;;;4904505;29;20577;-67
2023/10/20 10:48:13;;;;;;;6.55;2.97;;;;;;;;;;4906290;29;20044;-68
2023/10/20 10:50:41;;;;;;;14.13;3.35;;;;;;;;;;4905995;29;20035;-68
2023/10/20 10:53:08;;;;;;;9.02;3.13;;;;;;;;;;4905724;29;20034;-68
2023/10/20 10:55:37;;;;;;;8.77;3.22;;;;;;;;;;4899771;29;20115;-67
2023/10/20 10:58:07;;;;;;;9.10;3.03;;;;;;;;;;4899028;29;20383;-67
2023/10/20 11:00:33;;;;;;;7.75;4.10;;;;;;;;;;4899831;29;20039;-66
2023/10/20 11:03:01;;;;;;;9.40;3.67;;;;;;;;;;4903474;29;20200;-67
2023/10/20 11:05:28;;;;;;;11.95;3.83;;;;;;;;;;4897236;29;20123;-67
2023/10/20 11:08:02;;;;;;;6.32;2.75;;;;;;;;;;4897121;29;20025;-67
2023/10/20 11:10:28;;;;;;;7.75;3.58;;;;;;;;;;4896028;29;20028;-67
2023/10/20 11:12:55;;;;;;;11.75;3.72;;;;;;;;;;4880935;29;20036;-67
2023/10/20 11:15:21;;;;;;;12.48;3.78;;;;;;;;;;4897359;29;20494;-67
2023/10/20 11:17:49;;;;;;;14.02;3.80;;;;;;;;;;4897266;29;20043;-67
2023/10/20 11:20:19;;;;;;;9.25;3.83;;;;;;;;;;4880483;29;20120;-67
2023/10/20 11:22:44;;;;;;;9.10;4.13;;;;;;;;;;4897521;29;20040;-67
2023/10/20 11:25:18;;;;;;;9.60;3.53;;;;;;;;;;4897216;29;20104;-67
2023/10/20 11:27:46;;;;;;;10.27;4.13;;;;;;;;;;4897462;29;20505;-67
2023/10/20 11:30:12;;;;;;;8.30;3.45;;;;;;;;;;4897178;29;20033;-67
2023/10/20 11:32:38;;;;;;;9.50;3.83;;;;;;;;;;4897025;29;20114;-67
2023/10/20 11:35:05;;;;;;;7.78;3.40;;;;;;;;;;4897022;29;20029;-67
2023/10/20 11:37:30;;;;;;;11.77;3.90;;;;;;;;;;4896995;29;20024;-67
2023/10/20 11:39:56;;;;;;;11.35;3.53;;;;;;;;;;4896938;29;20032;-67
2023/10/20 11:42:21;;;;;;;9.98;3.70;;;;;;;;;;4896939;29;20039;-67
2023/10/20 11:44:47;;;;;;;14.30;4.00;;;;;;;;;;4879968;29;20036;-67
2023/10/20 11:47:13;;;;;;;12.60;4.13;;;;;;;;;;4896786;29;20055;-67
2023/10/20 11:49:38;;;;;;;11.38;3.80;;;;;;;;;;4897080;29;20044;-67
2023/10/20 11:52:07;;;;;;;7.85;3.60;;;;;;;;;;4896800;29;20032;-67
2023/10/20 11:54:33;;;;;;;9.50;3.67;;;;;;;;;;4896518;29;20482;-67
2023/10/20 11:56:58;;;;;;;15.90;4.00;;;;;;;;;;4896688;29;20404;-67
2023/10/20 11:59:24;;;;;;;9.93;3.25;;;;;;;;;;4896393;29;20289;-67
2023/10/20 12:01:49;;;;;;;10.20;3.95;;;;;;;;;;4896556;29;20505;-67
2023/10/20 12:04:15;;;;;;;10.57;3.67;;;;;;;;;;4896534;29;20376;-67
2023/10/20 12:06:41;;;;;;;9.20;3.67;;;;;;;;;;4896579;29;20052;-67
2023/10/20 12:09:10;;;;;;;8.98;3.80;;;;;;;;;;4896457;29;20028;-67
2023/10/20 12:11:37;;;;;;;9.83;3.80;;;;;;;;;;4896386;29;20778;-67
2023/10/20 12:14:05;;;;;;;13.20;3.72;;;;;;;;;;4896076;29;20314;-66
2023/10/20 12:16:31;;;;;;;9.68;3.78;;;;;;;;;;4896336;29;20490;-66
2023/10/20 12:19:06;;;;;;;16.65;3.53;;;;;;;;;;4896801;29;20048;-66
2023/10/20 12:21:32;;;;;;;14.93;3.83;;;;;;;;;;4896270;29;20107;-66
2023/10/20 12:23:57;;;;;;;26.67;4.60;;;;;;;;;;4896176;29;20168;-67
2023/10/20 12:26:24;;;;;;;19.15;3.65;;;;;;;;;;4896276;29;20036;-65
2023/10/20 12:28:50;;;;;;;14.93;3.58;;;;;;;;;;4896026;29;20029;-66
2023/10/20 12:31:16;;;;;;;19.25;4.22;;;;;;;;;;4895940;29;20032;-66
2023/10/20 12:33:44;;;;;;;17.85;3.50;;;;;;;;;;4895913;29;20029;-66
2023/10/20 12:36:13;;;;;;;14.80;4.15;;;;;;;;;;4895942;29;20394;-66
2023/10/20 12:38:43;;;;;;;24.17;4.57;;;;;;;;;;4896245;29;20040;-65
2023/10/20 12:41:13;;;;;;;27.23;4.55;;;;;;;;;;4895967;29;20410;-66
2023/10/20 12:43:39;;;;;;;27.10;4.20;;;;;;;;;;4895868;29;20060;-66
2023/10/20 12:46:04;;;;;;;19.77;4.22;;;;;;;;;;4895967;29;20494;-66
2023/10/20 12:48:30;;;;;;;27.60;3.95;;;;;;;;;;4896022;29;20064;-66
2023/10/20 12:50:57;;;;;;;23.40;4.25;;;;;;;;;;4895669;29;20031;-64
2023/10/20 12:53:23;;;;;;;22.45;4.00;;;;;;;;;;4895872;29;20043;-65
2023/10/20 12:55:49;;;;;;;16.13;4.75;;;;;;;;;;4895711;29;20040;-65
2023/10/20 12:58:14;;;;;;;21.42;3.95;;;;;;;;;;4895290;29;20409;-65
2023/10/20 13:00:40;;;;;;;14.13;3.40;;;;;;;;;;4895713;29;20068;-65
2023/10/20 13:03:07;;;;;;;22.05;4.53;;;;;;;;;;4894829;29;20504;-66
2023/10/20 13:05:33;;;;;;;20.48;4.13;;;;;;;;;;4895380;29;20040;-64
2023/10/20 13:07:59;;;;;;;19.48;4.20;;;;;;;;;;4895273;29;20061;-66
2023/10/20 13:10:25;;;;;;;31.15;3.72;;;;;;;;;;4893862;29;20043;-66
2023/10/20 13:12:52;;;;;;;16.00;4.15;;;;;;;;;;4894540;29;20028;-65
2023/10/20 13:15:19;;;;;;;12.95;3.30;;;;;;;;;;4894602;29;20064;-66
2023/10/20 13:17:47;;;;;;;20.55;4.30;;;;;;;;;;4894970;29;20028;-66
2023/10/20 13:20:13;;;;;;;23.60;4.72;;;;;;;;;;4893964;29;20478;-66
2023/10/20 13:22:40;;;;;;;18.42;3.38;;;;;;;;;;4895441;29;20032;-65
2023/10/20 13:25:06;;;;;;;14.52;3.20;;;;;;;;;;4895598;29;20040;-66
2023/10/20 13:27:33;;;;;;;15.63;3.85;;;;;;;;;;4895640;29;20359;-66
2023/10/20 13:30:03;;;;;;;18.63;3.92;;;;;;;;;;4895731;29;20107;-66
2023/10/20 13:32:28;;;;;;;20.45;3.70;;;;;;;;;;4895553;29;20517;-67
2023/10/20 13:34:54;;;;;;;38.67;4.30;;;;;;;;;;4895381;29;20036;-67
2023/10/20 13:37:20;;;;;;;31.27;4.15;;;;;;;;;;4895440;29;20119;-66
2023/10/20 13:39:45;;;;;;;28.60;3.85;;;;;;;;;;4895401;29;20025;-66
2023/10/20 13:42:11;;;;;;;25.92;4.30;;;;;;;;;;4895505;29;20071;-66
2023/10/20 13:44:36;;;;;;;23.13;4.63;;;;;;;;;;4895435;29;20033;-64
2023/10/20 13:47:02;;;;;;;16.40;4.22;;;;;;;;;;4895436;29;20029;-66
2023/10/20 13:49:28;;;;;;;20.38;4.03;;;;;;;;;;4895335;29;20116;-67
2023/10/20 13:51:54;;;;;;;23.75;5.35;;;;;;;;;;4895328;29;20029;-66
2023/10/20 13:54:19;;;;;;;16.95;3.92;;;;;;;;;;4895173;29;20044;-66
2023/10/20 13:56:46;;;;;;;24.58;4.60;;;;;;;;;;4895354;29;20055;-66
2023/10/20 13:59:12;;;;;;;20.13;4.55;;;;;;;;;;4895166;29;20052;-65
2023/10/20 14:01:38;;;;;;;13.43;3.72;;;;;;;;;;4895488;29;20172;-66
2023/10/20 14:04:06;;;;;;;28.38;4.40;;;;;;;;;;4895280;29;20572;-67
2023/10/20 14:06:33;;;;;;;26.17;4.90;;;;;;;;;;4895160;29;20029;-65
2023/10/20 14:08:59;;;;;;;34.28;4.35;;;;;;;;;;4895173;29;20044;-68
2023/10/20 14:11:24;;;;;;;18.33;3.97;;;;;;;;;;4898638;29;20027;-66
2023/10/20 14:13:50;;;;;;;22.42;4.20;;;;;;;;;;4898418;29;20491;-64
2023/10/20 14:16:15;;;;;;;21.30;4.40;;;;;;;;;;4899371;29;20024;-64
2023/10/20 14:18:41;;;;;;;21.55;4.00;;;;;;;;;;4900017;29;20085;-64
2023/10/20 14:21:08;;;;;;;22.80;4.13;;;;;;;;;;4886806;29;20068;-64
2023/10/20 14:23:35;;;;;;;29.08;4.95;;;;;;;;;;4918866;29;20039;-64
2023/10/20 14:26:01;;;;;;;16.55;3.78;;;;;;;;;;4918643;29;20393;-66
2023/10/20 14:28:33;;;;;;;28.70;4.53;;;;;;;;;;4918538;29;20059;-65
2023/10/20 14:31:02;;;;;;;17.73;3.80;;;;;;;;;;4918527;29;20092;-65
2023/10/20 14:33:28;;;;;;;25.08;4.40;;;;;;;;;;4918786;29;20032;-66
2023/10/20 14:35:56;;;;;;;20.92;4.35;;;;;;;;;;4918441;29;20063;-66
2023/10/20 14:38:26;;;;;;;30.30;4.78;;;;;;;;;;4918435;29;20118;-66
2023/10/20 14:41:06;;;;;;;20.92;4.00;;;;;;;;;;4918469;29;20119;-66
2023/10/20 14:43:34;;;;;;;25.98;4.68;;;;;;;;;;4917965;29;20051;-66
2023/10/20 14:46:00;;;;;;;14.82;3.53;;;;;;;;;;4917944;29;20029;-66
2023/10/20 14:48:26;;;;;;;21.23;4.63;;;;;;;;;;4918062;29;20032;-66
2023/10/20 14:50:56;;;;;;;24.48;4.43;;;;;;;;;;4917845;29;20076;-66
2023/10/20 14:53:22;;;;;;;21.73;4.65;;;;;;;;;;4918430;29;20401;-66
2023/10/20 14:55:48;;;;;;;18.48;3.92;;;;;;;;;;4917974;29;20036;-66
2023/10/20 14:58:14;;;;;;;24.08;3.97;;;;;;;;;;4917676;29;20055;-66
2023/10/20 15:00:50;;;;;;;17.13;4.18;;;;;;;;;;4918156;29;20032;-66
2023/10/20 15:03:21;;;;;;;18.63;4.22;;;;;;;;;;4917891;29;20078;-66
2023/10/20 15:05:47;;;;;;;14.43;4.13;;;;;;;;;;4918014;29;20024;-66
2023/10/20 15:08:13;;;;;;;22.85;4.53;;;;;;;;;;4918006;29;20079;-66
2023/10/20 15:10:39;;;;;;;15.57;4.38;;;;;;;;;;4917908;29;20358;-66
2023/10/20 15:13:05;;;;;;;19.70;3.97;;;;;;;;;;4917866;29;20036;-66
2023/10/20 15:15:35;;;;;;;15.57;3.97;;;;;;;;;;4917756;29;20478;-66